Time;durP1;ratioP1;P1;durP2;ratioP2;P2;SDS_P1;SDS_P2;PMS_P1;PMS_P2;Temp;Humidity;BMP_temperature;BMP_pressure;BME280_temperature;BME280_humidity;BME280_pressure;Samples;Min_cycle;Max_cycle;Signal;HPM_P1;HPM_P2
2022/08/08 00:01:56;;;;;;;3.10;2.73;;;17.30;99.90;;;;;;5085816;28;20414;-43
2022/08/08 00:04:44;;;;;;;3.87;2.50;;;17.20;99.90;;;;;;5089667;28;20422;-43
2022/08/08 00:07:43;;;;;;;4.03;3.00;;;17.10;99.90;;;;;;5089124;28;20486;-42
2022/08/08 00:10:12;;;;;;;4.57;3.03;;;17.00;99.90;;;;;;5089515;28;20414;-42
2022/08/08 00:12:54;;;;;;;3.77;3.40;;;16.90;99.90;;;;;;5089638;28;20463;-45
2022/08/08 00:15:27;;;;;;;3.00;2.80;;;16.90;99.90;;;;;;5077118;28;20423;-43
2022/08/08 00:18:02;;;;;;;4.70;2.80;;;16.80;99.90;;;;;;5089105;28;20984;-43
2022/08/08 00:20:45;;;;;;;3.37;2.97;;;16.70;99.90;;;;;;5088077;28;20774;-43
2022/08/08 00:23:35;;;;;;;2.80;2.50;;;16.60;99.90;;;;;;5089539;28;20981;-42
2022/08/08 00:26:03;;;;;;;3.37;3.07;;;16.60;99.90;;;;;;5088894;28;20437;-42
2022/08/08 00:28:34;;;;;;;3.50;2.90;;;16.50;99.90;;;;;;5089554;28;20773;-43
2022/08/08 00:31:02;;;;;;;2.90;2.70;;;16.50;99.90;;;;;;5093176;28;20509;-42
2022/08/08 00:33:34;;;;;;;3.70;2.83;;;16.40;99.90;;;;;;5093127;28;20446;-41
2022/08/08 00:36:12;;;;;;;4.23;2.53;;;16.30;99.90;;;;;;5092940;28;20425;-43
2022/08/08 00:38:57;;;;;;;4.30;2.97;;;16.30;99.90;;;;;;5092484;28;20792;-43
2022/08/08 00:41:54;;;;;;;3.33;2.97;;;16.30;99.90;;;;;;5093076;28;20505;-42
2022/08/08 00:44:26;;;;;;;3.03;2.73;;;16.30;99.90;;;;;;5092777;28;20414;-42
2022/08/08 00:47:19;;;;;;;3.20;2.90;;;16.40;99.90;;;;;;5092307;28;20422;-43
2022/08/08 00:50:09;;;;;;;4.30;3.60;;;16.40;99.90;;;;;;5092999;28;20418;-42
2022/08/08 00:52:37;;;;;;;3.60;3.13;;;16.40;99.90;;;;;;5092638;28;20419;-41
2022/08/08 00:55:22;;;;;;;3.50;3.20;;;16.40;99.90;;;;;;5092594;28;20929;-42
2022/08/08 00:58:15;;;;;;;4.50;3.13;;;16.40;99.90;;;;;;5092229;28;20501;-43
2022/08/08 01:01:16;;;;;;;3.60;2.90;;;16.50;99.90;;;;;;5092714;28;20413;-41
2022/08/08 01:04:06;;;;;;;4.50;3.17;;;16.50;99.90;;;;;;5092574;28;20835;-44
2022/08/08 01:06:54;;;;;;;3.57;3.27;;;16.60;99.90;;;;;;5092092;28;20430;-41
2022/08/08 01:09:35;;;;;;;3.80;3.50;;;16.70;99.90;;;;;;5092240;28;21035;-44
2022/08/08 01:12:36;;;;;;;3.13;2.83;;;16.70;99.90;;;;;;5092558;28;20414;-42
2022/08/08 01:15:26;;;;;;;3.80;3.40;;;16.60;99.90;;;;;;5091317;28;20422;-42
2022/08/08 01:18:17;;;;;;;3.60;3.20;;;16.70;99.90;;;;;;5091388;28;20411;-42
2022/08/08 01:21:20;;;;;;;3.77;3.20;;;16.60;99.90;;;;;;5090890;28;20438;-42
2022/08/08 01:23:49;;;;;;;3.80;3.50;;;16.60;99.90;;;;;;5092023;28;20510;-42
2022/08/08 01:26:20;;;;;;;3.40;3.10;;;16.70;99.90;;;;;;5091889;28;20484;-43
2022/08/08 01:29:13;;;;;;;3.93;3.50;;;16.60;99.90;;;;;;5091363;28;20410;-42
2022/08/08 01:32:10;;;;;;;3.40;3.10;;;16.70;99.90;;;;;;5092188;28;20407;-42
2022/08/08 01:35:09;;;;;;;3.60;3.30;;;16.70;99.90;;;;;;5091434;28;20446;-43
2022/08/08 01:38:29;;;;;;;5.13;3.40;;;16.70;99.90;;;;;;5091309;28;20488;-44
2022/08/08 01:41:30;;;;;;;3.50;3.20;;;16.60;99.90;;;;;;5047767;28;20435;-43
2022/08/08 01:44:14;;;;;;;3.90;3.50;;;16.50;99.90;;;;;;5087926;28;20426;-42
2022/08/08 01:47:03;;;;;;;4.40;3.60;;;16.50;99.90;;;;;;5091418;28;20453;-43
2022/08/08 01:50:05;;;;;;;5.03;3.43;;;16.40;99.90;;;;;;5091804;28;20419;-43
2022/08/08 01:52:39;;;;;;;4.13;3.43;;;16.30;99.90;;;;;;5091618;28;20414;-42
2022/08/08 01:55:16;;;;;;;3.40;3.10;;;16.20;99.90;;;;;;5091465;28;20548;-45
2022/08/08 01:57:58;;;;;;;6.70;6.03;;;16.10;99.90;;;;;;5090966;28;20881;-43
2022/08/08 02:00:39;;;;;;;3.53;3.07;;;16.00;99.90;;;;;;5091385;28;20430;-41
2022/08/08 02:03:42;;;;;;;3.97;3.63;;;15.90;99.90;;;;;;5091503;28;20411;-43
2022/08/08 02:06:33;;;;;;;4.27;3.87;;;15.80;99.90;;;;;;5091350;28;21090;-42
2022/08/08 02:09:17;;;;;;;4.07;3.73;;;15.60;99.90;;;;;;5091254;28;20418;-41
2022/08/08 02:11:45;;;;;;;4.83;3.33;;;15.60;99.90;;;;;;5091203;28;20444;-44
2022/08/08 02:15:02;;;;;;;6.67;3.50;;;15.50;99.90;;;;;;5090827;28;20486;-42
2022/08/08 02:17:28;;;;;;;4.43;4.00;;;15.40;99.90;;;;;;5047492;28;20530;-42
2022/08/08 02:20:13;;;;;;;4.63;4.23;;;15.30;99.90;;;;;;5085384;28;21202;-42
2022/08/08 02:22:52;;;;;;;4.13;3.73;;;15.30;99.90;;;;;;5089541;28;20486;-42
2022/08/08 02:25:41;;;;;;;3.87;3.57;;;15.20;99.90;;;;;;5091220;28;20513;-42
2022/08/08 02:28:14;;;;;;;5.43;3.93;;;15.20;99.90;;;;;;5083622;28;20430;-43
2022/08/08 02:31:21;;;;;;;5.00;4.13;;;15.10;99.90;;;;;;5090685;28;20418;-42
2022/08/08 02:34:16;;;;;;;3.80;3.30;;;15.00;99.90;;;;;;5055629;28;20469;-43
2022/08/08 02:36:50;;;;;;;4.27;3.67;;;14.90;99.90;;;;;;5088120;28;20438;-44
2022/08/08 02:39:57;;;;;;;3.90;3.43;;;14.90;99.90;;;;;;5090512;28;20418;-42
2022/08/08 02:42:45;;;;;;;4.83;4.07;;;14.90;99.90;;;;;;5090876;28;20427;-42
2022/08/08 02:45:20;;;;;;;3.53;3.23;;;14.80;99.90;;;;;;5090560;28;20426;-42
2022/08/08 02:48:04;;;;;;;4.07;3.27;;;14.80;99.90;;;;;;5090209;28;20776;-44
2022/08/08 02:51:03;;;;;;;4.20;3.60;;;14.80;99.90;;;;;;5090639;28;20538;-42
2022/08/08 02:54:06;;;;;;;4.63;3.30;;;14.70;99.90;;;;;;5090299;28;20797;-46
2022/08/08 02:56:57;;;;;;;6.10;4.50;;;14.70;99.90;;;;;;5090120;28;20415;-42
2022/08/08 02:59:50;;;;;;;4.30;3.90;;;14.60;99.90;;;;;;5089076;28;20418;-42
2022/08/08 03:02:25;;;;;;;4.63;4.00;;;14.60;99.90;;;;;;5090397;28;20414;-44
2022/08/08 03:05:22;;;;;;;4.33;3.80;;;14.60;99.90;;;;;;5090000;28;20535;-41
2022/08/08 03:07:53;;;;;;;5.67;3.97;;;14.50;99.90;;;;;;5089732;28;20430;-42
2022/08/08 03:10:56;;;;;;;4.63;3.90;;;14.50;99.90;;;;;;5089877;28;20418;-43
2022/08/08 03:14:07;;;;;;;4.40;4.00;;;14.50;99.90;;;;;;5090008;28;20495;-42
2022/08/08 03:17:08;;;;;;;4.20;3.73;;;14.40;99.90;;;;;;5089303;28;20430;-44
2022/08/08 03:20:20;;;;;;;4.00;3.70;;;14.50;99.90;;;;;;5079260;28;20430;-43
2022/08/08 03:22:48;;;;;;;4.50;4.10;;;14.40;99.90;;;;;;5089520;28;20414;-42
2022/08/08 03:25:16;;;;;;;7.53;4.03;;;14.40;99.90;;;;;;5090213;28;20422;-42
2022/08/08 03:27:58;;;;;;;4.50;4.10;;;14.30;99.90;;;;;;5088106;28;20948;-42
2022/08/08 03:30:24;;;;;;;6.23;4.60;;;14.40;99.90;;;;;;5090160;28;20418;-44
2022/08/08 03:35:39;;;;;;;4.90;4.40;;;14.40;99.90;;;;;;5089987;28;20515;-42
2022/08/08 03:38:06;;;;;;;6.80;4.97;;;14.50;99.90;;;;;;5089395;28;20780;-43
2022/08/08 03:40:32;;;;;;;5.40;4.30;;;14.50;99.90;;;;;;5089999;28;20414;-42
2022/08/08 03:42:58;;;;;;;5.33;4.83;;;14.70;99.90;;;;;;5089889;28;20469;-41
2022/08/08 03:45:26;;;;;;;5.73;5.17;;;14.70;99.90;;;;;;5089770;28;20200;-42
2022/08/08 03:48:06;;;;;;;5.47;4.50;;;14.70;99.90;;;;;;5088934;28;21100;-42
2022/08/08 03:50:34;;;;;;;6.03;5.50;;;14.70;99.90;;;;;;5089900;28;20433;-41
2022/08/08 03:53:10;;;;;;;6.00;5.30;;;14.80;99.90;;;;;;5089659;28;20454;-43
2022/08/08 03:55:42;;;;;;;6.17;5.30;;;14.80;99.90;;;;;;5086916;28;20517;-42
2022/08/08 03:58:09;;;;;;;7.20;5.20;;;14.70;99.90;;;;;;5088844;28;20431;-46
2022/08/08 04:00:35;;;;;;;5.53;4.90;;;14.70;99.90;;;;;;5089891;28;20797;-46
2022/08/08 04:03:07;;;;;;;4.80;4.27;;;14.60;99.90;;;;;;5089698;28;20413;-42
2022/08/08 04:05:34;;;;;;;5.27;4.77;;;14.60;99.90;;;;;;5092534;28;20499;-41
2022/08/08 04:08:02;;;;;;;6.33;5.10;;;14.70;99.90;;;;;;5092831;28;20427;-42
2022/08/08 04:10:29;;;;;;;5.90;5.30;;;14.60;99.90;;;;;;5092164;28;21103;-42
2022/08/08 04:12:55;;;;;;;5.80;4.90;;;14.50;99.90;;;;;;5091713;28;20474;-43
2022/08/08 04:15:21;;;;;;;4.77;4.37;;;14.50;99.90;;;;;;5081613;28;20422;-44
2022/08/08 04:17:48;;;;;;;5.47;4.80;;;14.40;99.90;;;;;;5092923;28;20422;-45
2022/08/08 04:20:14;;;;;;;4.57;4.27;;;14.30;99.90;;;;;;5092447;28;20504;-42
2022/08/08 04:22:40;;;;;;;6.30;5.57;;;14.30;99.90;;;;;;5093455;28;20981;-43
2022/08/08 04:25:07;;;;;;;5.40;4.93;;;14.20;99.90;;;;;;5093239;28;20433;-42
2022/08/08 04:27:34;;;;;;;6.00;5.40;;;14.20;99.90;;;;;;5092493;28;20410;-42
2022/08/08 04:30:02;;;;;;;5.30;4.80;;;14.20;99.90;;;;;;5093324;28;20747;-42
2022/08/08 04:32:27;;;;;;;5.07;4.57;;;14.10;99.90;;;;;;5093204;28;20425;-44
2022/08/08 04:34:53;;;;;;;5.90;5.17;;;14.10;99.90;;;;;;5092941;28;20666;-43
2022/08/08 04:37:19;;;;;;;4.93;4.53;;;14.10;99.90;;;;;;5092463;28;20648;-43
2022/08/08 04:39:45;;;;;;;10.47;5.97;;;14.10;99.90;;;;;;5091716;28;20279;-42
2022/08/08 04:42:11;;;;;;;7.37;4.40;;;14.10;99.90;;;;;;5089925;28;20568;-42
2022/08/08 04:44:36;;;;;;;6.07;5.47;;;14.10;99.90;;;;;;5085368;28;20210;-42
2022/08/08 04:47:02;;;;;;;5.37;4.87;;;14.00;99.90;;;;;;5091505;28;20271;-42
2022/08/08 04:49:28;;;;;;;6.30;4.40;;;14.10;99.90;;;;;;5092342;28;20197;-41
2022/08/08 04:51:54;;;;;;;5.53;5.03;;;14.10;99.90;;;;;;5092811;28;20431;-42
2022/08/08 04:54:19;;;;;;;5.53;4.87;;;14.10;99.90;;;;;;5092512;28;20889;-43
2022/08/08 04:56:45;;;;;;;5.40;4.73;;;14.10;99.90;;;;;;5092051;28;20192;-41
2022/08/08 04:59:11;;;;;;;6.90;6.27;;;14.20;99.90;;;;;;5092781;28;20238;-43
2022/08/08 05:01:37;;;;;;;9.07;7.50;;;14.20;99.90;;;;;;5092636;28;20189;-42
2022/08/08 05:04:02;;;;;;;7.17;6.20;;;14.30;99.90;;;;;;5091322;28;20716;-44
2022/08/08 05:06:28;;;;;;;7.40;6.60;;;14.40;99.90;;;;;;5092512;28;20295;-48
2022/08/08 05:08:54;;;;;;;7.60;6.80;;;14.50;99.90;;;;;;5091800;28;20226;-42
2022/08/08 05:11:21;;;;;;;8.20;7.40;;;14.60;99.90;;;;;;5092414;28;20201;-42
2022/08/08 05:13:46;;;;;;;9.73;8.07;;;14.60;99.90;;;;;;5092177;28;20203;-42
2022/08/08 05:16:12;;;;;;;9.37;6.93;;;14.70;99.90;;;;;;5091252;28;20817;-42
2022/08/08 05:18:38;;;;;;;7.17;6.57;;;14.80;99.90;;;;;;5091442;28;20184;-42
2022/08/08 05:21:05;;;;;;;9.03;7.73;;;14.90;99.90;;;;;;5091615;28;20237;-42
2022/08/08 05:23:31;;;;;;;6.93;6.20;;;15.00;99.90;;;;;;5092013;28;20211;-45
2022/08/08 05:25:58;;;;;;;9.13;7.77;;;15.10;99.90;;;;;;5092187;28;21157;-42
2022/08/08 05:28:24;;;;;;;8.83;7.50;;;15.20;99.90;;;;;;5091212;28;20515;-42
2022/08/08 05:30:50;;;;;;;7.47;6.77;;;15.30;99.90;;;;;;5092071;28;20867;-42
2022/08/08 05:33:17;;;;;;;7.40;6.43;;;15.40;99.90;;;;;;5092007;28;20513;-42
2022/08/08 05:35:43;;;;;;;8.77;6.97;;;15.50;99.90;;;;;;5088551;28;20188;-42
2022/08/08 05:38:14;;;;;;;7.17;5.73;;;15.60;99.90;;;;;;5087975;28;20422;-42
2022/08/08 05:40:52;;;;;;;9.10;6.53;;;15.60;99.90;;;;;;5089733;28;20438;-44
2022/08/08 05:43:26;;;;;;;7.80;6.37;;;15.60;99.90;;;;;;5083544;28;20449;-42
2022/08/08 05:45:57;;;;;;;7.30;5.80;;;15.60;99.90;;;;;;5091653;28;20435;-42
2022/08/08 05:48:23;;;;;;;6.10;5.43;;;15.60;99.90;;;;;;5087684;28;20521;-42
2022/08/08 05:50:49;;;;;;;8.43;6.83;;;15.70;99.90;;;;;;5090215;28;20533;-42
2022/08/08 05:53:16;;;;;;;6.90;6.00;;;15.70;99.90;;;;;;5090487;28;20523;-44
2022/08/08 05:55:43;;;;;;;7.07;5.70;;;15.80;99.90;;;;;;5077356;28;21011;-42
2022/08/08 05:58:11;;;;;;;7.63;6.80;;;15.90;99.90;;;;;;5090151;28;20427;-43
2022/08/08 06:00:38;;;;;;;6.97;6.27;;;16.00;99.90;;;;;;5090632;28;20411;-42
2022/08/08 06:03:10;;;;;;;6.90;6.27;;;16.10;99.90;;;;;;5090579;28;20484;-42
2022/08/08 06:05:46;;;;;;;7.40;6.70;;;16.30;99.90;;;;;;5090721;28;20532;-43
2022/08/08 06:08:20;;;;;;;10.20;8.83;;;16.50;99.90;;;;;;5087780;28;20766;-42
2022/08/08 06:10:47;;;;;;;9.37;8.47;;;16.70;99.90;;;;;;5090937;28;21183;-44
2022/08/08 06:13:14;;;;;;;9.80;7.97;;;16.90;99.90;;;;;;5090825;28;20453;-42
2022/08/08 06:15:45;;;;;;;10.07;9.07;;;17.10;99.90;;;;;;5091057;28;20480;-43
2022/08/08 06:18:13;;;;;;;9.60;8.63;;;17.20;99.90;;;;;;5090709;28;20422;-42
2022/08/08 06:20:41;;;;;;;9.37;7.53;;;17.40;99.90;;;;;;5090329;28;21047;-42
2022/08/08 06:23:06;;;;;;;8.13;7.33;;;17.60;99.90;;;;;;5090738;28;20815;-46
2022/08/08 06:25:35;;;;;;;9.77;8.13;;;17.70;99.90;;;;;;5090522;28;20442;-42
2022/08/08 06:28:11;;;;;;;10.90;9.63;;;18.00;99.90;;;;;;5089865;28;20210;-43
2022/08/08 06:30:39;;;;;;;9.43;8.47;;;18.20;99.90;;;;;;5091231;28;20465;-44
2022/08/08 06:33:10;;;;;;;10.30;9.10;;;18.30;99.90;;;;;;5090727;28;20472;-42
2022/08/08 06:35:42;;;;;;;9.90;8.90;;;18.40;99.90;;;;;;5090663;28;20422;-42
2022/08/08 06:38:09;;;;;;;9.50;8.60;;;18.40;99.90;;;;;;5090081;28;20497;-44
2022/08/08 06:40:36;;;;;;;13.33;8.53;;;18.50;99.90;;;;;;5090701;28;20436;-45
2022/08/08 06:43:07;;;;;;;8.57;7.60;;;18.60;99.90;;;;;;5090624;28;20423;-42
2022/08/08 06:45:33;;;;;;;12.03;8.73;;;18.80;99.90;;;;;;5090397;28;20422;-42
2022/08/08 06:47:59;;;;;;;10.17;8.60;;;18.80;99.90;;;;;;5090023;28;20418;-43
2022/08/08 06:50:26;;;;;;;8.90;8.00;;;18.80;99.90;;;;;;5090548;28;20521;-42
2022/08/08 06:52:53;;;;;;;10.57;8.50;;;18.90;99.90;;;;;;5090522;28;20422;-43
2022/08/08 06:55:20;;;;;;;12.23;8.17;;;19.00;99.90;;;;;;5090164;28;20458;-43
2022/08/08 06:57:46;;;;;;;10.63;8.30;;;19.20;99.90;;;;;;5089977;28;20960;-43
2022/08/08 07:00:12;;;;;;;9.80;8.90;;;19.20;99.90;;;;;;5090302;28;20940;-43
2022/08/08 07:02:42;;;;;;;11.73;9.50;;;19.30;99.90;;;;;;5090622;28;20419;-43
2022/08/08 07:05:12;;;;;;;13.20;9.10;;;19.20;99.90;;;;;;5089951;28;20491;-42
2022/08/08 07:08:07;;;;;;;9.23;8.33;;;19.20;99.90;;;;;;5089751;28;20468;-43
2022/08/08 07:10:37;;;;;;;13.17;9.67;;;19.20;99.90;;;;;;5090399;28;20414;-45
2022/08/08 07:13:06;;;;;;;11.17;8.90;;;19.20;99.90;;;;;;5090273;28;20458;-42
2022/08/08 07:16:07;;;;;;;12.40;9.30;;;19.10;99.90;;;;;;5090278;28;20918;-44
2022/08/08 07:18:56;;;;;;;10.90;9.50;;;19.00;99.90;;;;;;5083765;28;21257;-43
2022/08/08 07:21:27;;;;;;;11.60;8.87;;;18.90;99.90;;;;;;5090014;28;20422;-42
2022/08/08 07:24:03;;;;;;;14.83;9.17;;;18.90;99.90;;;;;;5090266;28;20430;-46
2022/08/08 07:26:32;;;;;;;14.43;8.63;;;19.00;99.90;;;;;;5089796;28;20763;-43
2022/08/08 07:28:59;;;;;;;12.67;9.70;;;19.00;99.90;;;;;;5089930;28;20458;-45
2022/08/08 07:31:25;;;;;;;12.17;8.30;;;19.10;99.90;;;;;;5090037;28;20475;-43
2022/08/08 07:33:52;;;;;;;9.47;8.50;;;19.10;99.90;;;;;;5089934;28;20454;-44
2022/08/08 07:36:20;;;;;;;10.83;9.37;;;19.20;99.90;;;;;;5090065;28;20430;-43
2022/08/08 07:38:49;;;;;;;13.87;8.37;;;19.40;99.90;;;;;;5088623;28;20420;-45
2022/08/08 07:41:19;;;;;;;10.40;8.10;;;19.50;99.90;;;;;;5089717;28;20414;-44
2022/08/08 07:43:47;;;;;;;13.60;8.70;;;19.60;99.90;;;;;;5090077;28;20410;-43
2022/08/08 07:46:13;;;;;;;10.50;9.00;;;19.70;99.90;;;;;;5089990;28;20426;-44
2022/08/08 07:48:39;;;;;;;10.50;7.10;;;19.90;99.90;;;;;;5089148;28;20438;-43
2022/08/08 07:51:07;;;;;;;10.60;7.60;;;19.90;99.90;;;;;;5089902;28;20658;-43
2022/08/08 07:53:41;;;;;;;10.20;7.23;;;19.90;99.90;;;;;;5089270;28;20212;-43
2022/08/08 07:56:09;;;;;;;8.47;7.70;;;19.90;99.90;;;;;;5090064;28;20468;-44
2022/08/08 07:58:41;;;;;;;8.10;7.13;;;20.00;99.90;;;;;;5088948;28;20435;-48
2022/08/08 08:01:19;;;;;;;9.67;7.37;;;20.00;99.90;;;;;;5089718;28;20452;-43
2022/08/08 08:03:54;;;;;;;7.93;6.93;;;20.00;99.90;;;;;;5089623;28;20796;-44
2022/08/08 08:06:21;;;;;;;8.93;7.00;;;20.00;99.90;;;;;;5089489;28;20945;-44
2022/08/08 08:09:07;;;;;;;8.20;6.57;;;20.00;99.90;;;;;;5089039;28;20422;-46
2022/08/08 08:11:35;;;;;;;9.30;8.07;;;20.00;99.90;;;;;;5089666;28;20422;-43
2022/08/08 08:14:07;;;;;;;9.00;7.37;;;20.00;99.90;;;;;;5089313;28;20450;-42
2022/08/08 08:16:37;;;;;;;13.00;7.90;;;20.00;99.90;;;;;;5088924;28;20423;-43
2022/08/08 08:19:08;;;;;;;8.90;7.17;;;20.00;99.90;;;;;;5088546;28;20491;-43
2022/08/08 08:21:38;;;;;;;8.67;7.77;;;20.10;99.90;;;;;;5089585;28;20450;-43
2022/08/08 08:24:04;;;;;;;8.30;7.50;;;20.20;99.90;;;;;;5089337;28;20438;-46
2022/08/08 08:26:30;;;;;;;9.67;7.07;;;20.20;99.90;;;;;;5089459;28;20847;-43
2022/08/08 08:28:56;;;;;;;10.07;8.93;;;20.20;99.90;;;;;;5088916;28;20427;-45
2022/08/08 08:31:22;;;;;;;11.47;9.30;;;20.30;99.90;;;;;;5089474;28;20189;-44
2022/08/08 08:33:47;;;;;;;10.80;8.07;;;20.30;99.90;;;;;;5089510;28;20209;-43
2022/08/08 08:36:14;;;;;;;14.87;8.37;;;20.30;99.90;;;;;;5089393;28;20193;-43
2022/08/08 08:38:40;;;;;;;11.30;8.20;;;20.30;99.90;;;;;;5088814;28;20212;-47
2022/08/08 08:41:07;;;;;;;10.43;6.87;;;20.30;99.90;;;;;;5089310;28;20993;-44
2022/08/08 08:43:37;;;;;;;10.53;7.53;;;20.40;99.90;;;;;;5089115;28;20422;-43
2022/08/08 08:46:08;;;;;;;8.13;7.33;;;20.50;99.90;;;;;;5089070;28;20435;-43
2022/08/08 08:48:34;;;;;;;8.33;7.50;;;20.50;99.90;;;;;;5088607;28;20430;-43
2022/08/08 08:51:01;;;;;;;10.70;8.40;;;20.50;99.90;;;;;;5092316;28;20966;-45
2022/08/08 08:53:31;;;;;;;8.20;6.90;;;20.60;99.90;;;;;;5092639;28;20448;-44
2022/08/08 08:55:58;;;;;;;9.30;8.40;;;20.60;99.90;;;;;;5092912;28;20764;-43
2022/08/08 08:58:30;;;;;;;8.53;6.90;;;20.70;99.90;;;;;;5091956;28;20791;-43
2022/08/08 09:00:59;;;;;;;9.50;7.20;;;20.80;99.90;;;;;;5092746;28;20422;-46
2022/08/08 09:03:26;;;;;;;7.00;6.30;;;20.80;99.90;;;;;;5092674;28;20425;-45
2022/08/08 09:05:53;;;;;;;8.30;6.63;;;20.90;99.90;;;;;;5092649;28;20495;-44
2022/08/08 09:08:26;;;;;;;7.07;5.50;;;21.00;99.90;;;;;;5091984;28;20461;-43
2022/08/08 09:10:52;;;;;;;9.13;6.20;;;21.20;99.90;;;;;;5092516;28;20813;-44
2022/08/08 09:13:20;;;;;;;5.53;4.93;;;21.20;99.90;;;;;;5092185;28;20457;-43
2022/08/08 09:15:46;;;;;;;6.60;5.00;;;21.30;99.90;;;;;;5092568;28;20431;-46
2022/08/08 09:18:16;;;;;;;6.83;6.13;;;21.40;99.90;;;;;;5091724;28;20453;-43
2022/08/08 09:20:44;;;;;;;5.17;4.63;;;21.60;99.90;;;;;;5090916;28;20442;-43
2022/08/08 09:23:12;;;;;;;7.80;6.30;;;21.70;99.90;;;;;;5092097;28;20427;-45
2022/08/08 09:26:01;;;;;;;8.33;5.43;;;21.60;99.90;;;;;;5092142;28;20438;-43
2022/08/08 09:28:28;;;;;;;5.63;5.13;;;21.70;99.90;;;;;;5091117;28;20430;-43
2022/08/08 09:31:02;;;;;;;5.60;4.97;;;21.80;99.90;;;;;;5092159;28;20430;-44
2022/08/08 09:33:31;;;;;;;7.10;4.90;;;21.90;99.90;;;;;;5091883;28;20449;-44
2022/08/08 09:35:57;;;;;;;6.60;4.80;;;22.00;99.20;;;;;;5092333;28;20430;-45
2022/08/08 09:38:42;;;;;;;5.80;5.10;;;22.30;99.50;;;;;;5091308;28;20456;-43
2022/08/08 09:41:11;;;;;;;4.70;4.30;;;22.40;99.90;;;;;;5091997;28;20176;-44
2022/08/08 09:43:52;;;;;;;6.63;5.90;;;22.60;99.90;;;;;;5091812;28;20515;-44
2022/08/08 09:46:20;;;;;;;5.57;5.03;;;22.80;99.50;;;;;;5091688;28;20430;-43
2022/08/08 09:48:46;;;;;;;5.97;4.97;;;22.90;98.50;;;;;;5090565;28;20461;-45
2022/08/08 09:51:21;;;;;;;6.60;4.70;;;23.00;97.80;;;;;;5091901;28;20462;-46
2022/08/08 09:53:54;;;;;;;5.30;4.50;;;23.10;97.50;;;;;;5091371;28;20203;-45
2022/08/08 09:56:21;;;;;;;5.60;4.17;;;23.20;98.30;;;;;;5091824;28;20437;-43
2022/08/08 09:58:53;;;;;;;9.07;5.00;;;23.30;98.20;;;;;;5069311;28;20999;-45
2022/08/08 10:01:22;;;;;;;8.13;5.10;;;23.50;97.40;;;;;;5084042;28;20433;-43
2022/08/08 10:03:49;;;;;;;5.73;4.83;;;23.50;96.80;;;;;;5091473;28;20937;-44
2022/08/08 10:06:19;;;;;;;6.33;4.07;;;23.60;97.20;;;;;;5091285;28;20446;-43
2022/08/08 10:08:50;;;;;;;4.60;4.20;;;23.70;97.30;;;;;;5090702;28;20430;-44
2022/08/08 10:11:20;;;;;;;7.50;4.17;;;23.80;96.80;;;;;;5091003;28;20455;-46
2022/08/08 10:13:56;;;;;;;4.17;3.77;;;23.90;97.60;;;;;;5091055;28;20636;-43
2022/08/08 10:16:22;;;;;;;3.93;3.60;;;24.00;96.50;;;;;;5091175;28;20504;-45
2022/08/08 10:18:49;;;;;;;4.57;4.17;;;24.10;95.70;;;;;;5090531;28;20442;-43
2022/08/08 10:21:20;;;;;;;4.60;3.70;;;24.10;94.50;;;;;;5089704;28;21094;-44
2022/08/08 10:23:50;;;;;;;5.70;5.10;;;24.20;95.10;;;;;;5090991;28;20238;-44
2022/08/08 10:26:18;;;;;;;4.33;3.93;;;24.30;95.90;;;;;;5091122;28;20429;-46
2022/08/08 10:28:55;;;;;;;6.47;3.80;;;24.40;95.70;;;;;;5090270;28;20426;-45
2022/08/08 10:34:15;;;;;;;3.97;3.67;;;24.60;95.40;;;;;;5090706;28;20469;-43
2022/08/08 10:36:42;;;;;;;4.00;3.63;;;24.70;95.00;;;;;;5090279;28;20442;-43
2022/08/08 10:39:23;;;;;;;5.70;5.10;;;24.80;94.90;;;;;;5090758;28;20521;-45
2022/08/08 10:42:00;;;;;;;4.00;3.57;;;24.90;93.90;;;;;;5090862;28;20414;-43
2022/08/08 10:44:34;;;;;;;4.27;3.87;;;24.90;94.00;;;;;;5090539;28;20445;-44
2022/08/08 10:47:11;;;;;;;3.97;3.63;;;25.00;94.00;;;;;;5090064;28;20487;-48
2022/08/08 10:49:39;;;;;;;4.17;3.70;;;25.00;92.50;;;;;;5089341;28;20421;-44
2022/08/08 10:52:05;;;;;;;4.20;3.70;;;25.10;92.70;;;;;;5090693;28;20921;-45
2022/08/08 10:54:30;;;;;;;6.40;3.60;;;25.10;92.80;;;;;;5090355;28;20473;-43
2022/08/08 10:56:58;;;;;;;4.67;4.27;;;25.20;92.50;;;;;;5089776;28;20210;-44
2022/08/08 10:59:24;;;;;;;4.23;3.50;;;25.20;91.70;;;;;;5090317;28;20184;-43
2022/08/08 11:01:50;;;;;;;3.60;3.27;;;25.20;92.60;;;;;;5088536;28;20422;-46
2022/08/08 11:04:16;;;;;;;4.30;3.23;;;25.30;92.70;;;;;;5089543;28;20419;-44
2022/08/08 11:06:42;;;;;;;3.80;3.50;;;25.30;90.80;;;;;;5088304;28;20229;-44
2022/08/08 11:09:10;;;;;;;3.10;2.90;;;25.20;87.40;;;;;;5089743;28;20974;-43
2022/08/08 11:11:44;;;;;;;4.53;3.80;;;25.20;88.10;;;;;;5089503;28;20185;-43
2022/08/08 11:14:13;;;;;;;4.00;3.53;;;25.20;88.10;;;;;;5088461;28;20461;-42
2022/08/08 11:16:44;;;;;;;3.70;3.40;;;25.10;87.60;;;;;;5089671;28;20813;-44
2022/08/08 11:19:11;;;;;;;4.20;3.23;;;25.10;87.60;;;;;;5088560;28;20903;-43
2022/08/08 11:21:44;;;;;;;7.13;4.03;;;25.20;91.00;;;;;;5088827;28;20574;-43
2022/08/08 11:24:10;;;;;;;4.20;3.90;;;25.30;90.20;;;;;;5089762;28;20538;-43
2022/08/08 11:26:40;;;;;;;4.47;4.03;;;25.40;90.90;;;;;;5089253;28;20426;-45
2022/08/08 11:29:07;;;;;;;4.20;3.80;;;25.50;91.20;;;;;;5089973;28;20458;-43
2022/08/08 11:31:46;;;;;;;3.57;3.27;;;25.60;90.50;;;;;;5088456;28;20440;-43
2022/08/08 11:34:16;;;;;;;3.97;3.67;;;25.60;89.40;;;;;;5071475;28;21071;-44
2022/08/08 11:36:43;;;;;;;6.17;3.63;;;25.50;86.50;;;;;;5088571;28;20426;-45
2022/08/08 11:39:11;;;;;;;3.47;3.17;;;25.60;87.00;;;;;;5089805;28;20425;-44
2022/08/08 11:41:38;;;;;;;4.63;3.90;;;25.60;89.30;;;;;;5088562;28;20971;-44
2022/08/08 11:44:04;;;;;;;3.70;3.40;;;25.70;90.60;;;;;;5089910;28;20857;-43
2022/08/08 11:46:33;;;;;;;4.80;4.10;;;25.80;90.60;;;;;;5089905;28;20441;-45
2022/08/08 11:49:06;;;;;;;3.10;2.80;;;25.90;89.10;;;;;;5089497;28;20491;-46
2022/08/08 11:51:33;;;;;;;3.83;3.47;;;26.00;88.00;;;;;;5088673;28;20513;-44
2022/08/08 11:53:59;;;;;;;3.40;3.10;;;25.90;82.60;;;;;;5088243;28;20450;-44
2022/08/08 11:56:34;;;;;;;3.77;3.47;;;26.00;85.20;;;;;;5089807;28;20593;-43
2022/08/08 11:59:07;;;;;;;3.90;3.60;;;25.90;83.80;;;;;;5089727;28;20419;-43
2022/08/08 12:01:33;;;;;;;4.23;3.83;;;25.90;84.10;;;;;;5089480;28;20436;-43
2022/08/08 12:04:01;;;;;;;3.60;3.30;;;25.90;83.50;;;;;;5089811;28;20422;-46
2022/08/08 12:06:27;;;;;;;4.50;3.80;;;25.90;84.10;;;;;;5089584;28;20200;-45
2022/08/08 12:09:03;;;;;;;4.10;3.70;;;25.90;87.80;;;;;;5088974;28;20431;-43
2022/08/08 12:11:41;;;;;;;5.03;3.87;;;26.00;85.10;;;;;;5088422;28;20219;-43
2022/08/08 12:14:06;;;;;;;4.13;3.73;;;26.00;83.40;;;;;;5087941;28;20450;-47
2022/08/08 12:16:33;;;;;;;5.30;3.50;;;26.00;87.20;;;;;;5089050;28;20437;-45
2022/08/08 12:19:01;;;;;;;5.60;4.30;;;26.10;84.40;;;;;;5088175;28;20580;-46
2022/08/08 12:21:28;;;;;;;4.77;3.17;;;26.20;88.60;;;;;;5089206;28;20419;-43
2022/08/08 12:24:10;;;;;;;4.13;3.73;;;26.20;90.20;;;;;;5089514;28;20944;-44
2022/08/08 12:26:43;;;;;;;3.87;3.57;;;26.30;89.00;;;;;;5092730;28;20797;-46
2022/08/08 12:29:33;;;;;;;4.67;3.50;;;26.30;84.40;;;;;;5093390;28;20540;-43
2022/08/08 12:32:03;;;;;;;4.43;3.97;;;26.30;81.50;;;;;;5091922;28;20469;-43
2022/08/08 12:34:42;;;;;;;5.97;3.60;;;26.20;80.70;;;;;;5093126;28;20457;-44
2022/08/08 12:37:21;;;;;;;7.93;3.37;;;26.00;82.80;;;;;;5092155;28;20427;-45
2022/08/08 12:39:48;;;;;;;5.70;4.33;;;25.90;86.60;;;;;;5091942;28;20426;-44
2022/08/08 12:42:14;;;;;;;3.97;3.23;;;26.00;87.10;;;;;;5074986;28;20509;-47
2022/08/08 12:44:41;;;;;;;3.60;3.30;;;26.10;83.80;;;;;;5093086;28;20521;-43
2022/08/08 12:47:08;;;;;;;4.00;3.60;;;26.10;85.30;;;;;;5092437;28;20979;-42
2022/08/08 12:49:35;;;;;;;4.30;3.90;;;26.20;88.60;;;;;;5092756;28;20430;-43
2022/08/08 12:52:03;;;;;;;4.30;3.90;;;26.30;86.80;;;;;;5093053;28;20467;-45
2022/08/08 12:54:33;;;;;;;4.40;4.00;;;26.40;85.90;;;;;;5092788;28;20816;-43
2022/08/08 12:56:59;;;;;;;4.53;3.70;;;26.50;88.60;;;;;;5092261;28;20441;-44
2022/08/08 12:59:29;;;;;;;3.50;3.20;;;26.50;86.70;;;;;;5091440;28;20427;-44
2022/08/08 13:02:00;;;;;;;4.77;3.77;;;26.50;84.60;;;;;;5092544;28;20423;-43
2022/08/08 13:04:28;;;;;;;3.93;3.63;;;26.50;82.30;;;;;;5092438;28;21007;-44
2022/08/08 13:07:00;;;;;;;4.27;3.87;;;26.40;83.70;;;;;;5092222;28;20545;-42
2022/08/08 13:09:45;;;;;;;3.90;3.60;;;26.40;84.50;;;;;;5091152;28;20465;-43
2022/08/08 13:12:18;;;;;;;5.20;3.40;;;26.50;84.60;;;;;;5092695;28;20933;-46
2022/08/08 13:14:50;;;;;;;4.23;3.80;;;26.60;85.10;;;;;;5090902;28;20458;-44
2022/08/08 13:17:22;;;;;;;3.83;3.53;;;26.60;83.70;;;;;;5091997;28;20434;-45
2022/08/08 13:19:48;;;;;;;4.10;3.70;;;26.60;86.50;;;;;;5090821;28;20449;-43
2022/08/08 13:22:17;;;;;;;5.37;3.30;;;26.70;85.30;;;;;;5092363;28;20781;-44
2022/08/08 13:24:44;;;;;;;4.60;4.20;;;26.80;85.30;;;;;;5092178;28;20793;-47